Terminal Aerodrome Forecast
Issued by NWS Tuscon, AZ

Home | Current Version | Previous Version | Text Only | Print | Product List | Glossary On
Versions: 1 2 3 4 5 6 7 8 9 10 11 12
415
FTUS45 KTWC 050520
TAFDUG
TAF
KDUG 050520Z 0506/0606 09008KT P6SM SCT250
     FM051700 17014G22KT P6SM FEW100 SCT250
     FM052000 20020G30KT P6SM SCT250
     FM060300 21010G17KT P6SM SCT250=

USA.gov is the U.S. government's official web portal to all federal, state and local government web resources and services.